createdAt,value
2023-03-16T00:00:10.000Z,80.64
2023-03-16T00:01:10.543Z,80.50
2023-03-16T00:02:10.814Z,80.54
2023-03-16T00:03:10.132Z,80.50
2023-03-16T00:04:10.493Z,80.29
2023-03-16T00:05:09.784Z,79.87
2023-03-16T00:06:10.136Z,79.77
2023-03-16T00:07:10.513Z,79.87
2023-03-16T00:08:09.845Z,79.77
2023-03-16T00:09:10.239Z,79.77
2023-03-16T00:10:10.651Z,79.87
2023-03-16T00:11:09.974Z,79.87
2023-03-16T00:12:10.316Z,79.77
2023-03-16T00:13:09.674Z,79.66
2023-03-16T00:14:11.016Z,79.56
2023-03-16T00:15:10.435Z,79.46
2023-03-16T00:16:09.961Z,79.46
2023-03-16T00:17:10.156Z,79.56
2023-03-16T00:18:09.500Z,79.66
2023-03-16T00:19:09.902Z,79.77
2023-03-16T00:20:10.285Z,79.66
2023-03-16T00:21:09.635Z,79.46
2023-03-16T00:22:10.244Z,79.35
2023-03-16T00:23:11.331Z,79.56
2023-03-16T00:24:09.716Z,79.87
2023-03-16T00:25:10.153Z,80.08
2023-03-16T00:26:10.406Z,79.98
2023-03-16T00:27:10.802Z,80.12
2023-03-16T00:28:11.325Z,79.98
2023-03-16T00:29:10.493Z,80.19
2023-03-16T00:30:09.939Z,80.19
2023-03-16T00:31:10.323Z,79.98
2023-03-16T00:32:09.677Z,79.87
2023-03-16T00:33:10.083Z,79.77
2023-03-16T00:34:09.416Z,79.66
2023-03-16T00:35:09.916Z,79.87
2023-03-16T00:36:10.198Z,79.87
2023-03-16T00:37:09.513Z,79.66
2023-03-16T00:38:09.829Z,79.66
2023-03-16T00:39:10.204Z,79.66
2023-03-16T00:40:09.569Z,79.77
2023-03-16T00:41:09.958Z,79.87
2023-03-16T00:42:09.298Z,79.87
2023-03-16T00:43:09.696Z,79.87
2023-03-16T00:44:10.044Z,79.77
2023-03-16T00:45:09.394Z,79.87
2023-03-16T00:46:09.886Z,79.77
2023-03-16T00:47:10.156Z,79.98
2023-03-16T00:48:10.463Z,79.87
2023-03-16T00:49:09.909Z,79.87
2023-03-16T00:50:09.266Z,79.98
2023-03-16T00:51:09.633Z,79.77
2023-03-16T00:52:10.026Z,79.66
2023-03-16T00:53:09.386Z,79.77
2023-03-16T00:54:09.762Z,79.87
2023-03-16T00:55:09.198Z,79.66
2023-03-16T00:56:09.500Z,79.46
2023-03-16T00:57:09.851Z,79.46
2023-03-16T00:58:09.227Z,79.56
2023-03-16T00:59:09.612Z,79.35
2023-03-16T01:00:10.027Z,79.25
2023-03-16T01:01:09.377Z,79.66
2023-03-16T01:02:09.734Z,79.46
2023-03-16T01:03:09.081Z,79.25
2023-03-16T01:04:09.445Z,79.46
2023-03-16T01:05:09.827Z,78.94
2023-03-16T01:06:09.193Z,78.73
2023-03-16T01:07:09.533Z,78.59
2023-03-16T01:08:08.869Z,78.73
2023-03-16T01:09:09.234Z,78.63
2023-03-16T01:10:09.638Z,78.63
2023-03-16T01:11:08.965Z,78.38
2023-03-16T01:12:09.412Z,78.49
2023-03-16T01:13:09.723Z,78.28
2023-03-16T01:14:09.114Z,78.52
2023-03-16T01:15:09.455Z,78.63
2023-03-16T01:16:08.742Z,78.63
2023-03-16T01:17:10.183Z,78.73
2023-03-16T01:18:09.583Z,78.63
2023-03-16T01:19:08.916Z,78.83
2023-03-16T01:20:10.357Z,78.63
2023-03-16T01:21:08.673Z,78.52
2023-03-16T01:22:09.057Z,78.63
2023-03-16T01:23:10.745Z,78.63
2023-03-16T01:24:08.815Z,78.59
2023-03-16T01:25:09.240Z,78.49
2023-03-16T01:26:09.640Z,78.59
2023-03-16T01:27:08.990Z,78.38
2023-03-16T01:28:09.418Z,78.07
2023-03-16T01:29:08.779Z,78.38
2023-03-16T01:30:09.123Z,78.90
2023-03-16T01:31:09.653Z,78.80
2023-03-16T01:32:09.824Z,78.59
2023-03-16T01:33:09.369Z,78.59
2023-03-16T01:34:08.679Z,78.38
2023-03-16T01:35:09.119Z,78.17
2023-03-16T01:36:10.430Z,78.38
2023-03-16T01:37:08.864Z,78.38
2023-03-16T01:38:09.262Z,78.59
2023-03-16T01:39:08.604Z,78.63
2023-03-16T01:40:08.964Z,78.63
2023-03-16T01:41:09.356Z,78.94
2023-03-16T01:42:08.674Z,79.04
2023-03-16T01:43:09.053Z,79.14
2023-03-16T01:44:08.449Z,79.46
2023-03-16T01:45:08.804Z,79.56
2023-03-16T01:46:10.188Z,79.66
2023-03-16T01:47:08.626Z,79.46
2023-03-16T01:48:08.936Z,79.46
2023-03-16T01:49:09.350Z,79.25
2023-03-16T01:50:08.679Z,79.35
2023-03-16T01:51:09.049Z,78.94
2023-03-16T01:52:08.406Z,79.04
2023-03-16T01:53:09.833Z,79.14
2023-03-16T01:54:09.144Z,79.04
2023-03-16T01:55:08.482Z,79.35
2023-03-16T01:56:08.880Z,79.49
2023-03-16T01:57:09.252Z,79.39
2023-03-16T01:58:08.614Z,79.39
2023-03-16T01:59:09.049Z,79.18
2023-03-16T02:00:08.370Z,79.18
2023-03-16T02:01:09.855Z,78.97
2023-03-16T02:02:09.169Z,79.14
2023-03-16T02:03:08.556Z,78.83
2023-03-16T02:04:09.024Z,78.63
2023-03-16T02:05:08.335Z,78.63
2023-03-16T02:06:08.673Z,78.42
2023-03-16T02:07:09.093Z,78.42
2023-03-16T02:08:08.446Z,78.52
2023-03-16T02:09:08.814Z,78.52
2023-03-16T02:10:09.294Z,78.52
2023-03-16T02:11:08.586Z,78.52
2023-03-16T02:12:08.986Z,78.52
2023-03-16T02:13:08.345Z,78.31
2023-03-16T02:14:08.745Z,78.42
2023-03-16T02:15:09.159Z,78.52
2023-03-16T02:16:09.383Z,78.56
2023-03-16T02:17:08.876Z,78.45
2023-03-16T02:18:09.282Z,78.77
2023-03-16T02:19:08.626Z,78.56
2023-03-16T02:20:07.951Z,78.77
2023-03-16T02:21:08.381Z,78.34
2023-03-16T02:22:08.880Z,78.31
2023-03-16T02:23:10.269Z,78.34
2023-03-16T02:24:08.612Z,78.56
2023-03-16T02:25:07.978Z,78.66
2023-03-16T02:26:08.409Z,78.31
2023-03-16T02:27:08.807Z,78.24
2023-03-16T02:28:08.830Z,78.10
2023-03-16T02:29:08.585Z,78.10
2023-03-16T02:30:08.985Z,78.00
2023-03-16T02:31:09.339Z,77.79
2023-03-16T02:32:08.796Z,77.89
2023-03-16T02:33:09.244Z,78.00
2023-03-16T02:34:10.614Z,78.20
2023-03-16T02:35:07.890Z,78.10
2023-03-16T02:36:08.314Z,78.20
2023-03-16T02:37:08.702Z,78.20
2023-03-16T02:38:08.065Z,77.79
2023-03-16T02:39:08.524Z,78.31
2023-03-16T02:40:12.003Z,78.20
2023-03-16T02:41:08.241Z,78.20
2023-03-16T02:42:08.643Z,78.31
2023-03-16T02:43:09.046Z,78.10
2023-03-16T02:44:09.495Z,78.20
2023-03-16T02:45:09.843Z,78.00
2023-03-16T02:46:08.217Z,78.10
2023-03-16T02:47:10.680Z,78.10
2023-03-16T02:48:07.961Z,78.10
2023-03-16T02:49:08.350Z,78.10
2023-03-16T02:50:07.765Z,78.10
2023-03-16T02:51:10.134Z,78.00
2023-03-16T02:52:09.578Z,77.89
2023-03-16T02:53:08.918Z,78.00
2023-03-16T02:54:08.256Z,78.10
2023-03-16T02:55:07.614Z,77.89
2023-03-16T02:56:09.117Z,78.00
2023-03-16T02:57:08.383Z,77.79
2023-03-16T02:58:07.736Z,77.69
2023-03-16T02:59:08.124Z,77.58
2023-03-16T03:00:08.528Z,77.48
2023-03-16T03:01:08.923Z,77.37
2023-03-16T03:02:10.842Z,77.58
2023-03-16T03:03:09.818Z,77.58
2023-03-16T03:04:08.003Z,77.69
2023-03-16T03:05:08.399Z,77.79
2023-03-16T03:06:08.714Z,77.58
2023-03-16T03:07:09.207Z,77.58
2023-03-16T03:08:08.562Z,78.00
2023-03-16T03:09:07.902Z,77.69
2023-03-16T03:10:09.300Z,77.48
2023-03-16T03:11:09.705Z,77.37
2023-03-16T03:12:08.314Z,77.37
2023-03-16T03:13:08.740Z,77.69
2023-03-16T03:14:09.094Z,77.89
2023-03-16T03:15:08.473Z,77.93
2023-03-16T03:16:07.977Z,78.14
2023-03-16T03:17:08.204Z,78.14
2023-03-16T03:18:09.645Z,78.03
2023-03-16T03:19:08.244Z,78.24
2023-03-16T03:20:09.703Z,78.03
2023-03-16T03:21:10.112Z,78.03
2023-03-16T03:22:08.431Z,78.24
2023-03-16T03:23:08.824Z,78.03
2023-03-16T03:24:08.207Z,78.24
2023-03-16T03:25:09.545Z,78.45
2023-03-16T03:26:09.022Z,78.34
2023-03-16T03:27:09.439Z,78.56
2023-03-16T03:28:08.797Z,78.45
2023-03-16T03:29:08.188Z,78.45
2023-03-16T03:30:09.404Z,78.66
2023-03-16T03:31:09.066Z,78.24
2023-03-16T03:32:08.414Z,78.66
2023-03-16T03:33:09.950Z,78.66
2023-03-16T03:34:08.240Z,78.56
2023-03-16T03:35:08.615Z,78.45
2023-03-16T03:36:08.185Z,78.66
2023-03-16T03:37:08.425Z,78.45
2023-03-16T03:38:09.833Z,78.45
2023-03-16T03:39:08.236Z,78.77
2023-03-16T03:40:09.584Z,78.77
2023-03-16T03:41:09.155Z,78.97
2023-03-16T03:42:09.375Z,79.08
2023-03-16T03:43:08.854Z,79.08
2023-03-16T03:44:08.210Z,78.97
2023-03-16T03:45:08.645Z,79.18
2023-03-16T03:46:08.199Z,79.28
2023-03-16T03:47:09.660Z,79.49
2023-03-16T03:48:07.798Z,79.49
2023-03-16T03:49:09.285Z,79.60
2023-03-16T03:50:08.664Z,79.80
2023-03-16T03:51:09.095Z,80.05
2023-03-16T03:52:09.553Z,79.84
2023-03-16T03:53:08.994Z,79.84
2023-03-16T03:54:09.320Z,79.84
2023-03-16T03:55:09.696Z,80.05
2023-03-16T03:56:08.077Z,80.16
2023-03-16T03:57:09.528Z,80.26
2023-03-16T03:58:07.994Z,80.26
2023-03-16T03:59:08.529Z,80.16
2023-03-16T04:00:08.854Z,80.26
2023-03-16T04:01:09.329Z,80.36
2023-03-16T04:02:08.775Z,80.57
2023-03-16T04:03:12.460Z,80.47
2023-03-16T04:04:07.506Z,80.57
2023-03-16T04:05:08.003Z,80.57
2023-03-16T04:06:11.524Z,80.78
2023-03-16T04:07:08.860Z,80.57
2023-03-16T04:08:09.196Z,80.57
2023-03-16T04:09:09.780Z,80.88
2023-03-16T04:10:09.228Z,80.99
2023-03-16T04:11:08.593Z,80.99
2023-03-16T04:12:09.073Z,80.88
2023-03-16T04:13:08.472Z,80.88
2023-03-16T04:14:08.957Z,80.88
2023-03-16T04:15:08.351Z,80.78
2023-03-16T04:16:07.822Z,80.68
2023-03-16T04:17:08.229Z,80.88
2023-03-16T04:18:07.662Z,80.88
2023-03-16T04:19:08.121Z,80.88
2023-03-16T04:20:09.567Z,80.78
2023-03-16T04:21:07.987Z,80.99
2023-03-16T04:22:08.427Z,81.09
2023-03-16T04:23:09.923Z,81.20
2023-03-16T04:24:08.264Z,80.99
2023-03-16T04:25:10.371Z,81.09
2023-03-16T04:26:08.113Z,80.88
2023-03-16T04:27:08.556Z,80.74
2023-03-16T04:28:07.943Z,80.85
2023-03-16T04:29:09.434Z,80.74
2023-03-16T04:30:07.809Z,80.74
2023-03-16T04:31:09.903Z,80.54
2023-03-16T04:32:06.622Z,80.85
2023-03-16T04:33:09.221Z,80.85
2023-03-16T04:34:09.633Z,80.95
2023-03-16T04:35:08.945Z,80.95
2023-03-16T04:36:08.492Z,81.05
2023-03-16T04:37:07.930Z,81.16
2023-03-16T04:38:08.290Z,81.05
2023-03-16T04:39:08.736Z,81.05
2023-03-16T04:40:10.719Z,81.05
2023-03-16T04:41:09.546Z,81.16
2023-03-16T04:42:07.840Z,81.16
2023-03-16T04:43:09.353Z,81.16
2023-03-16T04:44:09.661Z,81.05
2023-03-16T04:45:09.064Z,80.95
2023-03-16T04:46:10.559Z,81.16
2023-03-16T04:47:08.952Z,81.05
2023-03-16T04:48:09.391Z,81.16
2023-03-16T04:49:08.780Z,81.26
2023-03-16T04:50:08.149Z,81.37
2023-03-16T04:51:09.572Z,81.37
2023-03-16T04:52:08.959Z,81.37
2023-03-16T04:53:09.465Z,81.58
2023-03-16T04:54:08.923Z,81.47
2023-03-16T04:55:09.266Z,81.26
2023-03-16T04:56:09.614Z,81.37
2023-03-16T04:57:09.092Z,81.47
2023-03-16T04:58:09.521Z,81.26
2023-03-16T04:59:08.926Z,81.47
2023-03-16T05:00:08.351Z,81.37
2023-03-16T05:01:09.748Z,81.37
2023-03-16T05:02:09.079Z,81.47
2023-03-16T05:03:09.618Z,81.58
2023-03-16T05:04:13.146Z,81.47
2023-03-16T05:05:07.363Z,81.58
2023-03-16T05:06:09.765Z,81.79
2023-03-16T05:07:08.244Z,81.68
2023-03-16T05:08:08.660Z,81.68
2023-03-16T05:09:08.069Z,81.58
2023-03-16T05:10:08.506Z,81.58
2023-03-16T05:11:08.899Z,81.68
2023-03-16T05:12:08.317Z,81.68
2023-03-16T05:13:08.729Z,81.79
2023-03-16T05:14:06.026Z,81.79
2023-03-16T05:15:06.458Z,81.79
2023-03-16T05:16:06.404Z,81.65
2023-03-16T05:17:06.297Z,81.79
2023-03-16T05:18:06.696Z,81.85
2023-03-16T05:19:06.067Z,81.85
2023-03-16T05:20:06.525Z,81.65
2023-03-16T05:21:05.944Z,81.85
2023-03-16T05:22:06.420Z,81.75
2023-03-16T05:23:05.789Z,81.65
2023-03-16T05:24:09.351Z,81.85
2023-03-16T05:25:07.722Z,81.96
2023-03-16T05:26:08.222Z,81.96
2023-03-16T05:27:06.539Z,81.96
2023-03-16T05:28:06.805Z,81.96
2023-03-16T05:29:06.350Z,82.06
2023-03-16T05:30:05.784Z,82.06
2023-03-16T05:31:06.355Z,82.17
2023-03-16T05:32:05.599Z,81.96
2023-03-16T05:33:08.197Z,81.96
2023-03-16T05:34:07.414Z,82.06
2023-03-16T05:35:05.888Z,82.06
2023-03-16T05:36:07.280Z,82.37
2023-03-16T05:37:05.696Z,82.58
2023-03-16T05:38:07.091Z,82.58
2023-03-16T05:39:07.731Z,82.58
2023-03-16T05:40:06.023Z,82.48
2023-03-16T05:41:06.104Z,82.58
2023-03-16T05:42:05.836Z,82.58
2023-03-16T05:43:06.261Z,82.68
2023-03-16T05:44:05.682Z,82.68
2023-03-16T05:45:06.421Z,82.79
2023-03-16T05:46:05.508Z,82.68
2023-03-16T05:47:07.042Z,82.68
2023-03-16T05:48:06.330Z,82.79
2023-03-16T05:49:05.726Z,82.79
2023-03-16T05:50:06.126Z,82.68
2023-03-16T05:51:06.845Z,82.68
2023-03-16T05:52:05.983Z,82.79
2023-03-16T05:53:05.367Z,82.89
2023-03-16T05:54:05.818Z,82.75
2023-03-16T05:55:05.186Z,82.96
2023-03-16T05:56:05.628Z,83.37
2023-03-16T05:57:06.425Z,82.96
2023-03-16T05:58:05.943Z,82.96
2023-03-16T05:59:05.876Z,83.10
2023-03-16T06:00:05.281Z,83.06
2023-03-16T06:01:05.698Z,83.06
2023-03-16T06:02:06.148Z,83.27
2023-03-16T06:03:07.428Z,83.27
2023-03-16T06:04:06.027Z,83.31
2023-03-16T06:05:05.311Z,83.27
2023-03-16T06:06:05.746Z,83.17
2023-03-16T06:07:05.117Z,83.17
2023-03-16T06:08:05.560Z,83.37
2023-03-16T06:09:06.554Z,83.27
2023-03-16T06:10:06.286Z,83.37
2023-03-16T06:11:05.751Z,83.27
2023-03-16T06:12:05.133Z,83.37
2023-03-16T06:13:05.597Z,83.37
2023-03-16T06:14:06.087Z,83.48
2023-03-16T06:15:06.565Z,83.48
2023-03-16T06:16:05.821Z,83.52
2023-03-16T06:17:05.164Z,83.58
2023-03-16T06:18:06.535Z,83.48
2023-03-16T06:19:04.935Z,83.48
2023-03-16T06:20:05.334Z,83.48
2023-03-16T06:21:08.008Z,83.58
2023-03-16T06:22:05.196Z,83.69
2023-03-16T06:23:05.552Z,83.69
2023-03-16T06:24:04.932Z,83.58
2023-03-16T06:25:05.344Z,83.58
2023-03-16T06:26:05.771Z,83.58
2023-03-16T06:27:06.473Z,83.69
2023-03-16T06:28:05.557Z,83.80
2023-03-16T06:29:05.896Z,83.90
2023-03-16T06:30:05.325Z,83.90
2023-03-16T06:31:06.725Z,84.11
2023-03-16T06:32:05.107Z,84.11
2023-03-16T06:33:08.345Z,84.00
2023-03-16T06:34:04.869Z,83.80
2023-03-16T06:35:05.291Z,83.58
2023-03-16T06:36:05.769Z,83.58
2023-03-16T06:37:05.063Z,83.69
2023-03-16T06:38:05.496Z,83.80
2023-03-16T06:39:06.609Z,83.80
2023-03-16T06:40:05.280Z,83.58
2023-03-16T06:41:04.614Z,83.48
2023-03-16T06:42:05.042Z,83.44
2023-03-16T06:43:05.455Z,83.65
2023-03-16T06:44:05.794Z,83.54
2023-03-16T06:45:06.371Z,83.75
2023-03-16T06:46:04.674Z,83.65
2023-03-16T06:47:05.040Z,83.65
2023-03-16T06:48:05.434Z,83.54
2023-03-16T06:49:04.802Z,83.65
2023-03-16T06:50:06.159Z,83.86
2023-03-16T06:51:06.354Z,83.65
2023-03-16T06:52:04.966Z,83.86
2023-03-16T06:53:05.427Z,83.54
2023-03-16T06:54:04.831Z,83.44
2023-03-16T06:55:05.236Z,83.75
2023-03-16T06:56:04.599Z,83.75
2023-03-16T06:57:06.449Z,83.75
2023-03-16T06:58:04.426Z,83.75
2023-03-16T06:59:04.816Z,83.61
2023-03-16T07:00:05.250Z,83.61
2023-03-16T07:01:04.710Z,83.30
2023-03-16T07:02:05.080Z,83.40
2023-03-16T07:03:06.909Z,83.40
2023-03-16T07:04:04.947Z,83.51
2023-03-16T07:05:05.351Z,83.30
2023-03-16T07:06:04.744Z,83.20
2023-03-16T07:07:05.172Z,83.09
2023-03-16T07:08:04.558Z,83.30
2023-03-16T07:09:07.673Z,83.30
2023-03-16T07:10:04.344Z,82.99
2023-03-16T07:11:05.737Z,82.78
2023-03-16T07:12:06.146Z,82.89
2023-03-16T07:13:04.566Z,83.09
2023-03-16T07:14:04.953Z,83.09
2023-03-16T07:15:04.385Z,83.40
2023-03-16T07:16:04.765Z,83.61
2023-03-16T07:17:05.290Z,83.58
2023-03-16T07:18:04.491Z,83.78
2023-03-16T07:19:04.940Z,83.26
2023-03-16T07:20:04.301Z,83.16
2023-03-16T07:21:06.420Z,83.16
2023-03-16T07:22:05.170Z,83.37
2023-03-16T07:23:04.484Z,83.58
2023-03-16T07:24:04.871Z,83.58
2023-03-16T07:25:04.276Z,83.37
2023-03-16T07:26:04.650Z,83.37
2023-03-16T07:27:04.100Z,83.58
2023-03-16T07:28:05.401Z,83.58
2023-03-16T07:29:04.861Z,83.26
2023-03-16T07:30:04.191Z,83.47
2023-03-16T07:31:04.618Z,83.47
2023-03-16T07:32:04.049Z,83.37
2023-03-16T07:33:06.441Z,83.26
2023-03-16T07:34:04.748Z,82.84
2023-03-16T07:35:04.126Z,83.12
2023-03-16T07:36:04.587Z,83.53
2023-03-16T07:37:04.855Z,83.53
2023-03-16T07:38:04.285Z,83.33
2023-03-16T07:39:06.465Z,83.43
2023-03-16T07:40:04.051Z,83.22
2023-03-16T07:41:04.448Z,83.22
2023-03-16T07:42:03.869Z,82.81
2023-03-16T07:43:04.260Z,82.98
2023-03-16T07:44:04.641Z,82.25
2023-03-16T07:45:04.319Z,82.35
2023-03-16T07:46:05.499Z,81.73
2023-03-16T07:47:04.783Z,82.25
2023-03-16T07:48:04.139Z,82.32
2023-03-16T07:49:04.509Z,82.63
2023-03-16T07:50:03.869Z,82.53
2023-03-16T07:51:04.290Z,82.42
2023-03-16T07:52:04.704Z,82.21
2023-03-16T07:53:04.964Z,81.90
2023-03-16T07:54:04.424Z,82.01
2023-03-16T07:55:03.759Z,82.07
2023-03-16T07:56:04.179Z,81.87
2023-03-16T07:57:07.065Z,81.97
2023-03-16T07:58:03.926Z,81.76
2023-03-16T07:59:04.331Z,81.14
2023-03-16T08:00:03.687Z,81.04
2023-03-16T08:01:04.050Z,81.82
2023-03-16T08:02:05.418Z,82.03
2023-03-16T08:03:03.835Z,81.93
2023-03-16T08:04:04.252Z,81.62
2023-03-16T08:05:03.549Z,81.10
2023-03-16T08:06:04.906Z,81.30
2023-03-16T08:07:04.418Z,80.99
2023-03-16T08:08:03.733Z,80.99
2023-03-16T08:09:04.144Z,80.75
2023-03-16T08:10:04.477Z,81.06
2023-03-16T08:11:03.829Z,81.06
2023-03-16T08:12:04.235Z,80.96
2023-03-16T08:13:03.616Z,80.96
2023-03-16T08:14:03.997Z,80.33
2023-03-16T08:15:08.131Z,80.85
2023-03-16T08:16:03.821Z,80.44
2023-03-16T08:17:04.162Z,80.33
2023-03-16T08:18:05.513Z,80.96
2023-03-16T08:19:04.872Z,81.27
2023-03-16T08:20:04.301Z,80.54
2023-03-16T08:21:03.731Z,79.82
2023-03-16T08:22:05.063Z,80.02
2023-03-16T08:23:03.478Z,80.33
2023-03-16T08:24:03.882Z,80.13
2023-03-16T08:25:04.270Z,79.61
2023-03-16T08:26:03.610Z,79.82
2023-03-16T08:27:04.050Z,80.23
2023-03-16T08:28:03.394Z,80.30
2023-03-16T08:29:03.800Z,79.99
2023-03-16T08:30:05.118Z,80.30
2023-03-16T08:31:04.475Z,80.19
2023-03-16T08:32:03.869Z,79.99
2023-03-16T08:33:06.145Z,79.58
2023-03-16T08:34:03.593Z,80.19
2023-03-16T08:35:03.984Z,79.78
2023-03-16T08:36:03.359Z,79.85
2023-03-16T08:37:03.674Z,80.26
2023-03-16T08:38:04.102Z,80.05
2023-03-16T08:39:07.227Z,80.26
2023-03-16T08:40:04.752Z,79.64
2023-03-16T08:41:04.098Z,78.50
2023-03-16T08:42:04.438Z,78.99
2023-03-16T08:43:04.818Z,79.09
2023-03-16T08:44:03.384Z,78.26
2023-03-16T08:45:03.566Z,79.30
2023-03-16T08:46:04.932Z,79.19
2023-03-16T08:47:03.287Z,78.88
2023-03-16T08:48:03.663Z,78.57
2023-03-16T08:49:02.981Z,78.36
2023-03-16T08:50:03.697Z,78.67
2023-03-16T08:51:04.675Z,78.64
2023-03-16T08:52:03.058Z,78.43
2023-03-16T08:53:03.448Z,77.50
2023-03-16T08:54:03.828Z,77.29
2023-03-16T08:55:04.177Z,78.12
2023-03-16T08:56:03.686Z,77.81
2023-03-16T08:57:03.861Z,77.70
2023-03-16T08:58:04.158Z,78.12
2023-03-16T08:59:03.556Z,77.50
2023-03-16T09:00:02.861Z,77.47
2023-03-16T09:01:03.246Z,76.64
2023-03-16T09:02:03.690Z,76.01
2023-03-16T09:03:02.938Z,75.81
2023-03-16T09:04:03.365Z,76.53
2023-03-16T09:05:03.658Z,76.32
2023-03-16T09:06:02.960Z,76.01
2023-03-16T09:07:09.181Z,76.29
2023-03-16T09:08:06.931Z,77.53
2023-03-16T09:09:03.009Z,76.18
2023-03-16T09:10:03.389Z,76.39
2023-03-16T09:11:02.690Z,76.09
2023-03-16T09:12:03.039Z,75.67
2023-03-16T09:13:03.449Z,75.36
2023-03-16T09:14:02.769Z,75.05
2023-03-16T09:15:03.154Z,75.26
2023-03-16T09:16:03.548Z,75.46
2023-03-16T09:17:04.255Z,75.46
2023-03-16T09:18:03.160Z,75.46
2023-03-16T09:19:03.542Z,75.05
2023-03-16T09:20:19.285Z,74.84
2023-03-16T09:21:04.223Z,75.15
2023-03-16T09:22:02.559Z,75.57
2023-03-16T09:23:02.951Z,75.67
2023-03-16T09:24:04.266Z,75.05
2023-03-16T09:25:02.738Z,74.84
2023-03-16T09:26:03.960Z,75.05
2023-03-16T09:27:03.444Z,74.95
2023-03-16T09:28:02.687Z,74.63
2023-03-16T09:29:03.984Z,74.40
2023-03-16T09:30:03.422Z,74.19
2023-03-16T09:31:03.739Z,75.32
2023-03-16T09:32:04.011Z,75.12
2023-03-16T09:33:03.432Z,74.81
2023-03-16T09:34:03.705Z,75.12
2023-03-16T09:35:03.114Z,74.29
2023-03-16T09:36:02.563Z,74.05
2023-03-16T09:37:02.817Z,74.26
2023-03-16T09:38:05.995Z,74.26
2023-03-16T09:39:02.481Z,73.12
2023-03-16T09:40:10.304Z,73.64
2023-03-16T09:41:04.160Z,72.61
2023-03-16T09:42:02.427Z,73.71
2023-03-16T09:43:02.795Z,73.29
2023-03-16T09:44:03.112Z,73.29
2023-03-16T09:45:03.348Z,72.67
2023-03-16T09:46:02.788Z,73.71
2023-03-16T09:47:03.107Z,73.91
2023-03-16T09:48:02.340Z,72.64
2023-03-16T09:49:02.680Z,72.64
2023-03-16T09:50:03.974Z,72.54
2023-03-16T09:51:02.451Z,72.54
2023-03-16T09:52:02.633Z,71.81
2023-03-16T09:53:03.244Z,72.06
2023-03-16T09:54:02.261Z,71.92
2023-03-16T09:55:02.566Z,73.47
2023-03-16T09:56:03.864Z,73.05
2023-03-16T09:57:03.101Z,73.26
2023-03-16T09:58:02.464Z,72.92
2023-03-16T09:59:02.917Z,72.50
2023-03-16T10:00:02.060Z,72.71
2023-03-16T10:01:02.447Z,71.47
2023-03-16T10:02:03.651Z,72.09
2023-03-16T10:03:01.974Z,71.37
2023-03-16T10:04:02.434Z,72.61
2023-03-16T10:05:02.639Z,71.99
2023-03-16T10:06:02.944Z,71.58
2023-03-16T10:07:03.193Z,70.96
2023-03-16T10:08:02.553Z,72.16
2023-03-16T10:09:03.829Z,72.06
2023-03-16T10:10:03.140Z,70.92
2023-03-16T10:11:02.536Z,71.75
2023-03-16T10:12:03.784Z,71.85
2023-03-16T10:13:38.099Z,71.85
2023-03-16T10:14:03.391Z,71.34
2023-03-16T10:15:03.736Z,71.44
2023-03-16T10:16:03.134Z,71.64
2023-03-16T10:17:02.393Z,71.95
2023-03-16T10:18:02.659Z,71.75
2023-03-16T10:19:01.934Z,71.03
2023-03-16T10:20:03.219Z,71.34
2023-03-16T10:21:02.579Z,71.13
2023-03-16T10:22:01.889Z,71.23
2023-03-16T10:23:02.220Z,70.82
2023-03-16T10:24:02.469Z,71.13
2023-03-16T10:25:02.716Z,71.34
2023-03-16T10:26:02.089Z,71.55
2023-03-16T10:27:03.359Z,71.64
2023-03-16T10:28:02.722Z,71.03
2023-03-16T10:29:02.979Z,70.92
2023-03-16T10:30:03.245Z,70.41
2023-03-16T10:31:02.586Z,71.55
2023-03-16T10:32:01.935Z,71.55
2023-03-16T10:33:03.172Z,71.85
2023-03-16T10:34:02.547Z,71.95
2023-03-16T10:35:02.733Z,71.75
2023-03-16T10:36:03.036Z,71.64
2023-03-16T10:37:02.418Z,72.06
2023-03-16T10:38:02.637Z,71.64
2023-03-16T10:39:02.012Z,71.34
2023-03-16T10:40:03.581Z,71.34
2023-03-16T10:41:02.565Z,70.51
2023-03-16T10:42:02.878Z,70.72
2023-03-16T10:43:03.193Z,70.31
2023-03-16T10:44:01.508Z,71.55
2023-03-16T10:45:03.187Z,70.28
2023-03-16T10:46:02.491Z,70.28
2023-03-16T10:47:01.459Z,70.48
2023-03-16T10:48:02.701Z,71.20
2023-03-16T10:49:03.026Z,70.17
2023-03-16T10:50:03.379Z,70.17
2023-03-16T10:51:02.642Z,70.37
2023-03-16T10:52:02.127Z,70.76
2023-03-16T10:53:03.320Z,70.96
2023-03-16T10:54:01.580Z,71.37
2023-03-16T10:55:02.853Z,70.55
2023-03-16T10:56:02.259Z,70.14
2023-03-16T10:57:02.424Z,69.93
2023-03-16T10:58:02.127Z,70.04
2023-03-16T10:59:03.061Z,69.49
2023-03-16T11:00:02.356Z,69.59
2023-03-16T11:01:02.645Z,70.52
2023-03-16T11:02:02.925Z,71.41
2023-03-16T11:03:01.271Z,69.87
2023-03-16T11:04:01.577Z,69.15
2023-03-16T11:05:01.927Z,70.18
2023-03-16T11:06:02.277Z,69.73
2023-03-16T11:07:01.478Z,69.01
2023-03-16T11:08:02.719Z,67.88
2023-03-16T11:09:03.108Z,68.70
2023-03-16T11:10:02.337Z,68.16
2023-03-16T11:11:01.632Z,67.75
2023-03-16T11:12:01.962Z,68.57
2023-03-16T11:13:02.498Z,70.01
2023-03-16T11:14:02.498Z,69.46
2023-03-16T11:15:02.838Z,68.54
2023-03-16T11:16:02.128Z,67.30
2023-03-16T11:17:01.447Z,66.07
2023-03-16T11:18:01.754Z,66.38
2023-03-16T11:19:01.017Z,66.38
2023-03-16T11:20:01.339Z,67.38
2023-03-16T11:21:01.989Z,67.48
2023-03-16T11:22:02.873Z,66.25
2023-03-16T11:23:01.279Z,65.22
2023-03-16T11:24:01.519Z,66.52
2023-03-16T11:25:01.795Z,66.83
2023-03-16T11:26:01.068Z,66.42
2023-03-16T11:27:01.417Z,65.70
2023-03-16T11:28:01.770Z,65.50
2023-03-16T11:29:00.948Z,64.98
2023-03-16T11:30:02.223Z,65.50
2023-03-16T11:31:01.561Z,64.57
2023-03-16T11:32:01.906Z,64.98
2023-03-16T11:33:02.232Z,64.78
2023-03-16T11:34:01.477Z,65.29
2023-03-16T11:35:01.718Z,63.65
2023-03-16T11:36:01.003Z,63.65
2023-03-16T11:37:02.251Z,64.37
2023-03-16T11:38:02.662Z,64.75
2023-03-16T11:39:00.847Z,62.98
2023-03-16T11:40:02.101Z,61.85
2023-03-16T11:41:02.387Z,64.59
2023-03-16T11:42:01.741Z,62.81
2023-03-16T11:43:00.990Z,62.99
2023-03-16T11:44:02.310Z,64.12
2023-03-16T11:45:01.551Z,62.85
2023-03-16T11:46:00.852Z,62.55
2023-03-16T11:47:01.031Z,62.04
2023-03-16T11:48:01.310Z,62.55
2023-03-16T11:49:01.623Z,61.80
2023-03-16T11:50:01.760Z,60.78
2023-03-16T11:51:02.011Z,60.68
2023-03-16T11:52:02.310Z,59.63
2023-03-16T11:53:00.562Z,59.73
2023-03-16T11:54:01.816Z,59.53
2023-03-16T11:55:01.150Z,58.91
2023-03-16T11:56:01.420Z,58.91
2023-03-16T11:57:01.590Z,57.89
2023-03-16T11:58:01.856Z,58.40
2023-03-16T11:59:02.122Z,56.87
2023-03-16T12:00:02.554Z,58.29
2023-03-16T12:01:01.568Z,58.84
2023-03-16T12:02:01.902Z,59.55
2023-03-16T12:03:01.249Z,56.28
2023-03-16T12:04:02.545Z,58.33
2023-03-16T12:05:01.628Z,60.85
2023-03-16T12:06:07.802Z,61.34
2023-03-16T12:07:02.193Z,60.11
2023-03-16T12:08:00.410Z,58.89
2023-03-16T12:09:00.648Z,57.93
2023-03-16T12:10:01.843Z,57.97
2023-03-16T12:11:01.168Z,58.45
2023-03-16T12:12:00.373Z,58.96
2023-03-16T12:13:01.618Z,58.83
2023-03-16T12:14:01.914Z,57.70
2023-03-16T12:15:02.157Z,57.20
2023-03-16T12:16:01.489Z,56.99
2023-03-16T12:17:02.902Z,56.68
2023-03-16T12:18:00.917Z,57.29
2023-03-16T12:19:02.239Z,56.27
2023-03-16T12:20:00.380Z,56.48
2023-03-16T12:21:00.671Z,58.11
2023-03-16T12:22:00.910Z,56.89
2023-03-16T12:23:02.061Z,57.09
2023-03-16T12:24:01.321Z,55.15
2023-03-16T12:25:01.550Z,55.46
2023-03-16T12:26:00.904Z,55.56
2023-03-16T12:27:00.120Z,56.89
2023-03-16T12:28:00.383Z,56.07
2023-03-16T12:29:01.640Z,55.74
2023-03-16T12:30:00.884Z,54.85
2023-03-16T12:31:00.146Z,55.97
2023-03-16T12:32:00.389Z,54.74
2023-03-16T12:33:01.682Z,56.07
2023-03-16T12:34:01.816Z,53.44
2023-03-16T12:35:00.115Z,54.87
2023-03-16T12:36:00.432Z,58.01
2023-03-16T12:37:00.607Z,57.09
2023-03-16T12:38:01.816Z,55.33
2023-03-16T12:39:01.020Z,55.94
2023-03-16T12:40:00.385Z,54.51
2023-03-16T12:41:00.520Z,55.63
2023-03-16T12:42:00.772Z,56.35
2023-03-16T12:43:00.041Z,55.20
2023-03-16T12:44:01.227Z,55.10
2023-03-16T12:45:01.416Z,55.63
2023-03-16T12:46:01.737Z,56.43
2023-03-16T12:47:00.846Z,57.52
2023-03-16T12:48:01.099Z,55.00
2023-03-16T12:49:00.470Z,54.49
2023-03-16T12:50:00.653Z,53.90
2023-03-16T12:50:59.823Z,54.54
2023-03-16T12:52:00.106Z,53.54